Terminal Aerodrome Forecast
Issued by NWS Rapid City, SD

Home | Current Version | Previous Version | Text Only | Print | Product List | Glossary On
Versions: 1 2 3 4 5 6 7 8 9 10 11 12 13 14
000
FTUS43 KUNR 041720
TAFRAP
TAF
KRAP 041720Z 0418/0518 15010KT P6SM SCT025 BKN060
      TEMPO 0422/0502 2SM TSRA BKN030CB OVC050
     FM050400 27005KT P6SM BKN070=

USA.gov is the U.S. government's official web portal to all federal, state and local government web resources and services.